sensor_id;sensor_type;location;lat;lon;timestamp;P1;durP1;ratioP1;P2;durP2;ratioP2
19151;SDS011;9708;53.114;9.388;2024-03-08T00:01:57;3.30;;;2.83;;
19151;SDS011;9708;53.114;9.388;2024-03-08T00:04:23;2.60;;;2.50;;
19151;SDS011;9708;53.114;9.388;2024-03-08T00:06:50;6.17;;;1.57;;
19151;SDS011;9708;53.114;9.388;2024-03-08T00:09:17;5.03;;;2.77;;
19151;SDS011;9708;53.114;9.388;2024-03-08T00:11:45;2.13;;;2.03;;
19151;SDS011;9708;53.114;9.388;2024-03-08T00:14:14;1.30;;;1.30;;
19151;SDS011;9708;53.114;9.388;2024-03-08T00:16:41;1.83;;;1.83;;
19151;SDS011;9708;53.114;9.388;2024-03-08T00:19:08;2.67;;;1.83;;
19151;SDS011;9708;53.114;9.388;2024-03-08T00:21:36;3.60;;;3.07;;
19151;SDS011;9708;53.114;9.388;2024-03-08T00:24:03;4.67;;;3.20;;
19151;SDS011;9708;53.114;9.388;2024-03-08T00:26:30;1.93;;;1.83;;
19151;SDS011;9708;53.114;9.388;2024-03-08T00:28:59;3.10;;;2.93;;
19151;SDS011;9708;53.114;9.388;2024-03-08T00:31:26;2.33;;;1.73;;
19151;SDS011;9708;53.114;9.388;2024-03-08T00:33:53;1.70;;;1.70;;
19151;SDS011;9708;53.114;9.388;2024-03-08T00:36:20;1.50;;;1.50;;
19151;SDS011;9708;53.114;9.388;2024-03-08T00:38:46;3.07;;;2.67;;
19151;SDS011;9708;53.114;9.388;2024-03-08T00:41:13;3.27;;;2.63;;
19151;SDS011;9708;53.114;9.388;2024-03-08T00:43:40;1.67;;;1.60;;
19151;SDS011;9708;53.114;9.388;2024-03-08T00:46:08;2.73;;;2.10;;
19151;SDS011;9708;53.114;9.388;2024-03-08T00:48:35;4.17;;;2.47;;
19151;SDS011;9708;53.114;9.388;2024-03-08T00:51:03;4.20;;;2.77;;
19151;SDS011;9708;53.114;9.388;2024-03-08T00:53:30;1.77;;;1.67;;
19151;SDS011;9708;53.114;9.388;2024-03-08T00:55:57;1.97;;;1.63;;
19151;SDS011;9708;53.114;9.388;2024-03-08T00:58:24;4.23;;;1.87;;
19151;SDS011;9708;53.114;9.388;2024-03-08T01:00:50;1.47;;;1.47;;
19151;SDS011;9708;53.114;9.388;2024-03-08T01:03:19;2.57;;;2.37;;
19151;SDS011;9708;53.114;9.388;2024-03-08T01:05:46;2.77;;;2.43;;
19151;SDS011;9708;53.114;9.388;2024-03-08T01:08:13;1.87;;;1.77;;
19151;SDS011;9708;53.114;9.388;2024-03-08T01:10:39;2.33;;;2.23;;
19151;SDS011;9708;53.114;9.388;2024-03-08T01:13:06;1.57;;;1.57;;
19151;SDS011;9708;53.114;9.388;2024-03-08T01:15:34;2.33;;;2.13;;
19151;SDS011;9708;53.114;9.388;2024-03-08T01:18:01;2.13;;;2.03;;
19151;SDS011;9708;53.114;9.388;2024-03-08T01:20:29;1.73;;;1.70;;
19151;SDS011;9708;53.114;9.388;2024-03-08T01:22:56;3.57;;;1.77;;
19151;SDS011;9708;53.114;9.388;2024-03-08T01:25:23;1.43;;;1.37;;
19151;SDS011;9708;53.114;9.388;2024-03-08T01:27:50;1.20;;;1.20;;
19151;SDS011;9708;53.114;9.388;2024-03-08T01:30:18;5.60;;;4.40;;
19151;SDS011;9708;53.114;9.388;2024-03-08T01:32:45;0.80;;;0.80;;
19151;SDS011;9708;53.114;9.388;2024-03-08T01:35:12;1.60;;;1.50;;
19151;SDS011;9708;53.114;9.388;2024-03-08T01:37:40;2.13;;;2.03;;
19151;SDS011;9708;53.114;9.388;2024-03-08T01:40:07;2.23;;;2.13;;
19151;SDS011;9708;53.114;9.388;2024-03-08T01:42:34;3.33;;;3.13;;
19151;SDS011;9708;53.114;9.388;2024-03-08T01:45:03;2.60;;;2.43;;
19151;SDS011;9708;53.114;9.388;2024-03-08T01:47:30;1.57;;;1.57;;
19151;SDS011;9708;53.114;9.388;2024-03-08T01:49:58;1.97;;;1.87;;
19151;SDS011;9708;53.114;9.388;2024-03-08T01:52:25;2.43;;;2.23;;
19151;SDS011;9708;53.114;9.388;2024-03-08T01:54:53;1.00;;;1.00;;
19151;SDS011;9708;53.114;9.388;2024-03-08T01:57:20;2.17;;;2.13;;
19151;SDS011;9708;53.114;9.388;2024-03-08T01:59:48;2.67;;;2.47;;
19151;SDS011;9708;53.114;9.388;2024-03-08T02:02:15;1.43;;;1.43;;
19151;SDS011;9708;53.114;9.388;2024-03-08T02:04:45;2.40;;;2.30;;
19151;SDS011;9708;53.114;9.388;2024-03-08T02:07:12;1.70;;;1.70;;
19151;SDS011;9708;53.114;9.388;2024-03-08T02:09:39;1.93;;;1.87;;
19151;SDS011;9708;53.114;9.388;2024-03-08T02:12:08;2.37;;;2.27;;
19151;SDS011;9708;53.114;9.388;2024-03-08T02:14:34;2.17;;;2.07;;
19151;SDS011;9708;53.114;9.388;2024-03-08T02:17:02;2.73;;;2.07;;
19151;SDS011;9708;53.114;9.388;2024-03-08T02:19:30;4.80;;;3.00;;
19151;SDS011;9708;53.114;9.388;2024-03-08T02:21:59;2.23;;;2.13;;
19151;SDS011;9708;53.114;9.388;2024-03-08T02:24:29;2.63;;;2.27;;
19151;SDS011;9708;53.114;9.388;2024-03-08T02:26:56;4.03;;;2.80;;
19151;SDS011;9708;53.114;9.388;2024-03-08T02:29:23;2.53;;;1.80;;
19151;SDS011;9708;53.114;9.388;2024-03-08T02:31:50;1.43;;;1.40;;
19151;SDS011;9708;53.114;9.388;2024-03-08T02:34:17;2.90;;;2.70;;
19151;SDS011;9708;53.114;9.388;2024-03-08T02:36:45;2.47;;;2.33;;
19151;SDS011;9708;53.114;9.388;2024-03-08T02:39:13;1.67;;;1.57;;
19151;SDS011;9708;53.114;9.388;2024-03-08T02:41:40;3.93;;;3.73;;
19151;SDS011;9708;53.114;9.388;2024-03-08T02:44:08;2.47;;;1.60;;
19151;SDS011;9708;53.114;9.388;2024-03-08T02:46:35;2.00;;;1.80;;
19151;SDS011;9708;53.114;9.388;2024-03-08T02:49:02;2.70;;;2.57;;
19151;SDS011;9708;53.114;9.388;2024-03-08T02:51:29;5.40;;;3.47;;
19151;SDS011;9708;53.114;9.388;2024-03-08T02:53:56;2.37;;;2.27;;
19151;SDS011;9708;53.114;9.388;2024-03-08T02:56:24;6.13;;;1.87;;
19151;SDS011;9708;53.114;9.388;2024-03-08T02:58:51;1.93;;;1.90;;
19151;SDS011;9708;53.114;9.388;2024-03-08T03:01:18;1.37;;;1.33;;
19151;SDS011;9708;53.114;9.388;2024-03-08T03:03:47;4.10;;;3.70;;
19151;SDS011;9708;53.114;9.388;2024-03-08T03:06:14;1.63;;;1.53;;
19151;SDS011;9708;53.114;9.388;2024-03-08T03:08:41;1.53;;;1.53;;
19151;SDS011;9708;53.114;9.388;2024-03-08T03:11:10;3.17;;;2.57;;
19151;SDS011;9708;53.114;9.388;2024-03-08T03:13:39;3.20;;;2.23;;
19151;SDS011;9708;53.114;9.388;2024-03-08T03:16:07;1.50;;;1.50;;
19151;SDS011;9708;53.114;9.388;2024-03-08T03:18:35;1.13;;;1.13;;
19151;SDS011;9708;53.114;9.388;2024-03-08T03:21:02;2.43;;;2.20;;
19151;SDS011;9708;53.114;9.388;2024-03-08T03:23:32;2.27;;;2.10;;
19151;SDS011;9708;53.114;9.388;2024-03-08T03:26:00;3.90;;;2.03;;
19151;SDS011;9708;53.114;9.388;2024-03-08T03:28:27;1.37;;;1.37;;
19151;SDS011;9708;53.114;9.388;2024-03-08T03:30:55;2.83;;;2.27;;
19151;SDS011;9708;53.114;9.388;2024-03-08T03:33:23;1.93;;;1.67;;
19151;SDS011;9708;53.114;9.388;2024-03-08T03:35:50;2.63;;;2.43;;
19151;SDS011;9708;53.114;9.388;2024-03-08T03:38:17;5.87;;;3.57;;
19151;SDS011;9708;53.114;9.388;2024-03-08T03:40:48;3.80;;;2.00;;
19151;SDS011;9708;53.114;9.388;2024-03-08T03:43:17;1.57;;;1.57;;
19151;SDS011;9708;53.114;9.388;2024-03-08T03:45:44;1.77;;;1.67;;
19151;SDS011;9708;53.114;9.388;2024-03-08T03:48:12;1.50;;;1.37;;
19151;SDS011;9708;53.114;9.388;2024-03-08T03:50:39;1.57;;;1.57;;
19151;SDS011;9708;53.114;9.388;2024-03-08T03:53:06;4.67;;;2.17;;
19151;SDS011;9708;53.114;9.388;2024-03-08T03:55:33;3.20;;;2.90;;
19151;SDS011;9708;53.114;9.388;2024-03-08T03:58:02;9.40;;;3.30;;
19151;SDS011;9708;53.114;9.388;2024-03-08T04:00:29;5.10;;;2.20;;
19151;SDS011;9708;53.114;9.388;2024-03-08T04:02:55;1.27;;;1.27;;
19151;SDS011;9708;53.114;9.388;2024-03-08T04:05:26;1.93;;;1.83;;
19151;SDS011;9708;53.114;9.388;2024-03-08T04:07:53;2.27;;;2.13;;
19151;SDS011;9708;53.114;9.388;2024-03-08T04:10:20;1.43;;;1.43;;
19151;SDS011;9708;53.114;9.388;2024-03-08T04:12:47;1.70;;;1.70;;
19151;SDS011;9708;53.114;9.388;2024-03-08T04:15:14;1.37;;;1.37;;
19151;SDS011;9708;53.114;9.388;2024-03-08T04:17:41;2.13;;;1.87;;
19151;SDS011;9708;53.114;9.388;2024-03-08T04:20:08;2.53;;;2.43;;
19151;SDS011;9708;53.114;9.388;2024-03-08T04:22:37;2.97;;;2.23;;
19151;SDS011;9708;53.114;9.388;2024-03-08T04:25:04;2.63;;;2.43;;
19151;SDS011;9708;53.114;9.388;2024-03-08T04:27:32;5.60;;;4.70;;
19151;SDS011;9708;53.114;9.388;2024-03-08T04:29:59;2.67;;;2.13;;
19151;SDS011;9708;53.114;9.388;2024-03-08T04:32:26;3.50;;;3.20;;
19151;SDS011;9708;53.114;9.388;2024-03-08T04:34:54;1.90;;;1.90;;
19151;SDS011;9708;53.114;9.388;2024-03-08T04:37:21;1.23;;;1.23;;
19151;SDS011;9708;53.114;9.388;2024-03-08T04:39:50;2.53;;;2.07;;
19151;SDS011;9708;53.114;9.388;2024-03-08T04:42:17;2.80;;;2.60;;
19151;SDS011;9708;53.114;9.388;2024-03-08T04:44:44;2.77;;;2.63;;
19151;SDS011;9708;53.114;9.388;2024-03-08T04:47:11;1.70;;;1.60;;
19151;SDS011;9708;53.114;9.388;2024-03-08T04:49:38;7.87;;;3.87;;
19151;SDS011;9708;53.114;9.388;2024-03-08T04:52:05;1.53;;;1.43;;
19151;SDS011;9708;53.114;9.388;2024-03-08T04:54:33;2.13;;;1.93;;
19151;SDS011;9708;53.114;9.388;2024-03-08T04:57:01;2.57;;;2.37;;
19151;SDS011;9708;53.114;9.388;2024-03-08T04:59:29;2.93;;;2.10;;
19151;SDS011;9708;53.114;9.388;2024-03-08T05:01:56;1.23;;;1.23;;
19151;SDS011;9708;53.114;9.388;2024-03-08T05:04:23;1.87;;;1.80;;
19151;SDS011;9708;53.114;9.388;2024-03-08T05:06:50;2.23;;;2.13;;
19151;SDS011;9708;53.114;9.388;2024-03-08T05:09:17;2.67;;;2.57;;
19151;SDS011;9708;53.114;9.388;2024-03-08T05:11:44;1.77;;;1.77;;
19151;SDS011;9708;53.114;9.388;2024-03-08T05:14:13;2.00;;;2.00;;
19151;SDS011;9708;53.114;9.388;2024-03-08T05:16:41;1.23;;;1.23;;
19151;SDS011;9708;53.114;9.388;2024-03-08T05:19:08;4.63;;;2.33;;
19151;SDS011;9708;53.114;9.388;2024-03-08T05:21:35;2.23;;;1.77;;
19151;SDS011;9708;53.114;9.388;2024-03-08T05:24:02;1.53;;;1.53;;
19151;SDS011;9708;53.114;9.388;2024-03-08T05:26:30;2.13;;;2.03;;
19151;SDS011;9708;53.114;9.388;2024-03-08T05:28:58;2.20;;;2.07;;
19151;SDS011;9708;53.114;9.388;2024-03-08T05:31:26;5.63;;;2.90;;
19151;SDS011;9708;53.114;9.388;2024-03-08T05:33:53;2.60;;;2.50;;
19151;SDS011;9708;53.114;9.388;2024-03-08T05:36:21;1.67;;;1.67;;
19151;SDS011;9708;53.114;9.388;2024-03-08T05:38:48;2.43;;;2.33;;
19151;SDS011;9708;53.114;9.388;2024-03-08T05:41:15;1.20;;;1.20;;
19151;SDS011;9708;53.114;9.388;2024-03-08T05:43:42;2.60;;;2.50;;
19151;SDS011;9708;53.114;9.388;2024-03-08T05:46:09;3.93;;;3.63;;
19151;SDS011;9708;53.114;9.388;2024-03-08T05:48:38;2.90;;;2.70;;
19151;SDS011;9708;53.114;9.388;2024-03-08T05:51:05;1.93;;;1.83;;
19151;SDS011;9708;53.114;9.388;2024-03-08T05:53:31;1.67;;;1.67;;
19151;SDS011;9708;53.114;9.388;2024-03-08T05:55:58;3.27;;;3.13;;
19151;SDS011;9708;53.114;9.388;2024-03-08T05:58:27;3.20;;;3.03;;
19151;SDS011;9708;53.114;9.388;2024-03-08T06:00:56;2.13;;;1.93;;
19151;SDS011;9708;53.114;9.388;2024-03-08T06:03:23;4.37;;;2.90;;
19151;SDS011;9708;53.114;9.388;2024-03-08T06:05:51;1.70;;;1.67;;
19151;SDS011;9708;53.114;9.388;2024-03-08T06:08:18;2.40;;;2.30;;
19151;SDS011;9708;53.114;9.388;2024-03-08T06:10:45;7.93;;;2.63;;
19151;SDS011;9708;53.114;9.388;2024-03-08T06:13:15;1.77;;;1.73;;
19151;SDS011;9708;53.114;9.388;2024-03-08T06:15:42;1.87;;;1.87;;
19151;SDS011;9708;53.114;9.388;2024-03-08T06:18:09;1.77;;;1.73;;
19151;SDS011;9708;53.114;9.388;2024-03-08T06:20:36;2.50;;;2.30;;
19151;SDS011;9708;53.114;9.388;2024-03-08T06:23:05;8.70;;;3.07;;
19151;SDS011;9708;53.114;9.388;2024-03-08T06:25:31;2.57;;;2.33;;
19151;SDS011;9708;53.114;9.388;2024-03-08T06:28:00;4.30;;;2.23;;
19151;SDS011;9708;53.114;9.388;2024-03-08T06:30:26;2.60;;;2.43;;
19151;SDS011;9708;53.114;9.388;2024-03-08T06:32:53;1.97;;;1.80;;
19151;SDS011;9708;53.114;9.388;2024-03-08T06:35:20;2.87;;;2.77;;
19151;SDS011;9708;53.114;9.388;2024-03-08T06:37:47;2.87;;;2.57;;
19151;SDS011;9708;53.114;9.388;2024-03-08T06:40:16;3.87;;;3.47;;
19151;SDS011;9708;53.114;9.388;2024-03-08T06:42:42;2.93;;;2.73;;
19151;SDS011;9708;53.114;9.388;2024-03-08T06:45:10;4.50;;;4.20;;
19151;SDS011;9708;53.114;9.388;2024-03-08T06:47:37;2.80;;;2.23;;
19151;SDS011;9708;53.114;9.388;2024-03-08T06:50:06;2.70;;;2.10;;
19151;SDS011;9708;53.114;9.388;2024-03-08T06:52:34;1.33;;;1.33;;
19151;SDS011;9708;53.114;9.388;2024-03-08T06:55:01;4.50;;;3.50;;
19151;SDS011;9708;53.114;9.388;2024-03-08T06:57:31;1.63;;;1.57;;
19151;SDS011;9708;53.114;9.388;2024-03-08T06:59:58;2.13;;;2.03;;
19151;SDS011;9708;53.114;9.388;2024-03-08T07:02:26;2.23;;;2.10;;
19151;SDS011;9708;53.114;9.388;2024-03-08T07:04:53;6.13;;;3.70;;
19151;SDS011;9708;53.114;9.388;2024-03-08T07:07:20;3.07;;;2.80;;
19151;SDS011;9708;53.114;9.388;2024-03-08T07:09:47;2.43;;;2.23;;
19151;SDS011;9708;53.114;9.388;2024-03-08T07:12:14;2.87;;;2.70;;
19151;SDS011;9708;53.114;9.388;2024-03-08T07:14:43;1.97;;;1.63;;
19151;SDS011;9708;53.114;9.388;2024-03-08T07:17:10;4.03;;;3.67;;
19151;SDS011;9708;53.114;9.388;2024-03-08T07:19:37;3.53;;;3.27;;
19151;SDS011;9708;53.114;9.388;2024-03-08T07:22:04;3.43;;;2.20;;
19151;SDS011;9708;53.114;9.388;2024-03-08T07:24:33;7.13;;;4.00;;
19151;SDS011;9708;53.114;9.388;2024-03-08T07:27:15;5.83;;;2.83;;
19151;SDS011;9708;53.114;9.388;2024-03-08T07:29:44;4.10;;;3.47;;
19151;SDS011;9708;53.114;9.388;2024-03-08T07:32:11;6.67;;;3.70;;
19151;SDS011;9708;53.114;9.388;2024-03-08T07:34:46;7.33;;;3.73;;
19151;SDS011;9708;53.114;9.388;2024-03-08T07:37:14;6.40;;;4.63;;
19151;SDS011;9708;53.114;9.388;2024-03-08T07:39:41;11.30;;;5.07;;
19151;SDS011;9708;53.114;9.388;2024-03-08T07:42:08;9.87;;;5.37;;
19151;SDS011;9708;53.114;9.388;2024-03-08T07:44:36;4.87;;;3.80;;
19151;SDS011;9708;53.114;9.388;2024-03-08T07:47:05;9.43;;;5.80;;
19151;SDS011;9708;53.114;9.388;2024-03-08T07:49:34;10.30;;;4.47;;
19151;SDS011;9708;53.114;9.388;2024-03-08T07:52:02;10.30;;;4.60;;
19151;SDS011;9708;53.114;9.388;2024-03-08T07:54:32;10.20;;;3.90;;
19151;SDS011;9708;53.114;9.388;2024-03-08T07:56:59;11.03;;;5.10;;
19151;SDS011;9708;53.114;9.388;2024-03-08T07:59:27;5.50;;;3.63;;
19151;SDS011;9708;53.114;9.388;2024-03-08T08:01:54;5.63;;;3.13;;
19151;SDS011;9708;53.114;9.388;2024-03-08T08:04:23;7.43;;;4.33;;
19151;SDS011;9708;53.114;9.388;2024-03-08T08:06:51;6.97;;;4.40;;
19151;SDS011;9708;53.114;9.388;2024-03-08T08:09:19;10.67;;;4.20;;
19151;SDS011;9708;53.114;9.388;2024-03-08T08:11:53;7.67;;;4.73;;
19151;SDS011;9708;53.114;9.388;2024-03-08T08:14:20;7.47;;;4.20;;
19151;SDS011;9708;53.114;9.388;2024-03-08T08:16:47;7.93;;;5.33;;
19151;SDS011;9708;53.114;9.388;2024-03-08T08:19:17;10.03;;;4.93;;
19151;SDS011;9708;53.114;9.388;2024-03-08T08:21:46;8.63;;;5.43;;
19151;SDS011;9708;53.114;9.388;2024-03-08T08:24:13;10.83;;;5.90;;
19151;SDS011;9708;53.114;9.388;2024-03-08T08:26:39;9.50;;;4.50;;
19151;SDS011;9708;53.114;9.388;2024-03-08T08:29:06;7.37;;;5.00;;
19151;SDS011;9708;53.114;9.388;2024-03-08T08:31:33;10.27;;;4.57;;
19151;SDS011;9708;53.114;9.388;2024-03-08T08:34:00;12.50;;;4.50;;
19151;SDS011;9708;53.114;9.388;2024-03-08T08:36:28;6.73;;;4.17;;
19151;SDS011;9708;53.114;9.388;2024-03-08T08:38:57;8.77;;;4.57;;
19151;SDS011;9708;53.114;9.388;2024-03-08T08:41:24;8.70;;;4.10;;
19151;SDS011;9708;53.114;9.388;2024-03-08T08:43:52;10.80;;;4.93;;
19151;SDS011;9708;53.114;9.388;2024-03-08T08:46:19;12.10;;;5.30;;
19151;SDS011;9708;53.114;9.388;2024-03-08T08:48:46;9.07;;;4.20;;
19151;SDS011;9708;53.114;9.388;2024-03-08T08:51:13;10.37;;;5.63;;
19151;SDS011;9708;53.114;9.388;2024-03-08T08:53:40;8.67;;;4.70;;
19151;SDS011;9708;53.114;9.388;2024-03-08T08:56:13;7.10;;;4.30;;
19151;SDS011;9708;53.114;9.388;2024-03-08T08:58:41;7.90;;;5.40;;
19151;SDS011;9708;53.114;9.388;2024-03-08T09:01:08;8.33;;;4.10;;
19151;SDS011;9708;53.114;9.388;2024-03-08T09:03:35;10.57;;;4.50;;
19151;SDS011;9708;53.114;9.388;2024-03-08T09:06:02;9.37;;;5.20;;
19151;SDS011;9708;53.114;9.388;2024-03-08T09:08:30;12.47;;;6.10;;
19151;SDS011;9708;53.114;9.388;2024-03-08T09:10:57;12.00;;;6.20;;
19151;SDS011;9708;53.114;9.388;2024-03-08T09:13:26;9.10;;;4.93;;
19151;SDS011;9708;53.114;9.388;2024-03-08T09:15:53;10.10;;;5.17;;
19151;SDS011;9708;53.114;9.388;2024-03-08T09:18:20;7.47;;;3.70;;
19151;SDS011;9708;53.114;9.388;2024-03-08T09:20:47;8.77;;;5.03;;
19151;SDS011;9708;53.114;9.388;2024-03-08T09:23:13;7.88;;;3.75;;
19151;SDS011;9708;53.114;9.388;2024-03-08T09:25:42;5.85;;;4.50;;
19151;SDS011;9708;53.114;9.388;2024-03-08T09:28:09;9.32;;;4.32;;
19151;SDS011;9708;53.114;9.388;2024-03-08T09:30:38;8.30;;;4.55;;
19151;SDS011;9708;53.114;9.388;2024-03-08T09:33:05;10.25;;;5.63;;
19151;SDS011;9708;53.114;9.388;2024-03-08T09:35:32;7.70;;;4.43;;
19151;SDS011;9708;53.114;9.388;2024-03-08T09:37:59;8.48;;;4.63;;
19151;SDS011;9708;53.114;9.388;2024-03-08T09:40:26;8.48;;;4.68;;
19151;SDS011;9708;53.114;9.388;2024-03-08T09:42:52;7.40;;;4.32;;
19151;SDS011;9708;53.114;9.388;2024-03-08T09:45:20;7.77;;;4.33;;
19151;SDS011;9708;53.114;9.388;2024-03-08T09:47:50;12.93;;;5.57;;
19151;SDS011;9708;53.114;9.388;2024-03-08T09:50:18;10.60;;;4.53;;
19151;SDS011;9708;53.114;9.388;2024-03-08T09:52:46;10.37;;;5.07;;
19151;SDS011;9708;53.114;9.388;2024-03-08T09:55:14;7.57;;;4.13;;
19151;SDS011;9708;53.114;9.388;2024-03-08T09:57:47;9.00;;;5.47;;
19151;SDS011;9708;53.114;9.388;2024-03-08T10:00:28;5.73;;;4.17;;
19151;SDS011;9708;53.114;9.388;2024-03-08T10:02:59;7.97;;;3.63;;
19151;SDS011;9708;53.114;9.388;2024-03-08T10:05:27;7.68;;;5.15;;
19151;SDS011;9708;53.114;9.388;2024-03-08T10:07:54;11.68;;;5.25;;
19151;SDS011;9708;53.114;9.388;2024-03-08T10:10:21;6.47;;;4.18;;
19151;SDS011;9708;53.114;9.388;2024-03-08T10:12:48;11.13;;;5.55;;
19151;SDS011;9708;53.114;9.388;2024-03-08T10:15:15;11.25;;;5.10;;
19151;SDS011;9708;53.114;9.388;2024-03-08T10:17:42;8.55;;;4.95;;
19151;SDS011;9708;53.114;9.388;2024-03-08T10:20:14;9.32;;;4.68;;
19151;SDS011;9708;53.114;9.388;2024-03-08T10:22:41;9.10;;;4.47;;
19151;SDS011;9708;53.114;9.388;2024-03-08T10:25:09;7.50;;;4.33;;
19151;SDS011;9708;53.114;9.388;2024-03-08T10:27:37;10.10;;;4.93;;
19151;SDS011;9708;53.114;9.388;2024-03-08T10:30:05;10.93;;;5.00;;
19151;SDS011;9708;53.114;9.388;2024-03-08T10:32:34;9.77;;;4.83;;
19151;SDS011;9708;53.114;9.388;2024-03-08T10:35:01;6.33;;;3.97;;
19151;SDS011;9708;53.114;9.388;2024-03-08T10:37:30;7.43;;;3.93;;
19151;SDS011;9708;53.114;9.388;2024-03-08T10:40:01;5.40;;;4.10;;
19151;SDS011;9708;53.114;9.388;2024-03-08T10:42:35;7.10;;;4.60;;
19151;SDS011;9708;53.114;9.388;2024-03-08T10:45:15;9.37;;;4.10;;
19151;SDS011;9708;53.114;9.388;2024-03-08T10:47:46;10.03;;;4.63;;
19151;SDS011;9708;53.114;9.388;2024-03-08T10:50:17;10.50;;;5.03;;
19151;SDS011;9708;53.114;9.388;2024-03-08T10:52:48;6.20;;;3.70;;
19151;SDS011;9708;53.114;9.388;2024-03-08T10:55:16;8.77;;;4.90;;
19151;SDS011;9708;53.114;9.388;2024-03-08T10:57:45;8.53;;;4.07;;
19151;SDS011;9708;53.114;9.388;2024-03-08T11:00:13;6.30;;;4.07;;
19151;SDS011;9708;53.114;9.388;2024-03-08T11:02:43;8.67;;;4.77;;
19151;SDS011;9708;53.114;9.388;2024-03-08T11:05:10;6.43;;;3.97;;
19151;SDS011;9708;53.114;9.388;2024-03-08T11:07:42;7.13;;;3.83;;
19151;SDS011;9708;53.114;9.388;2024-03-08T11:10:19;8.00;;;5.13;;
19151;SDS011;9708;53.114;9.388;2024-03-08T11:12:46;6.17;;;3.47;;
19151;SDS011;9708;53.114;9.388;2024-03-08T11:15:14;12.30;;;5.07;;
19151;SDS011;9708;53.114;9.388;2024-03-08T11:17:47;12.83;;;4.70;;
19151;SDS011;9708;53.114;9.388;2024-03-08T11:20:15;6.40;;;3.37;;
19151;SDS011;9708;53.114;9.388;2024-03-08T11:22:47;8.47;;;4.73;;
19151;SDS011;9708;53.114;9.388;2024-03-08T11:28:10;9.80;;;4.03;;
19151;SDS011;9708;53.114;9.388;2024-03-08T11:30:45;12.67;;;4.93;;
19151;SDS011;9708;53.114;9.388;2024-03-08T11:33:14;8.20;;;4.87;;
19151;SDS011;9708;53.114;9.388;2024-03-08T11:35:42;7.03;;;4.07;;
19151;SDS011;9708;53.114;9.388;2024-03-08T11:38:11;9.03;;;4.37;;
19151;SDS011;9708;53.114;9.388;2024-03-08T11:40:38;7.47;;;3.97;;
19151;SDS011;9708;53.114;9.388;2024-03-08T11:43:08;11.53;;;4.70;;
19151;SDS011;9708;53.114;9.388;2024-03-08T11:45:35;9.90;;;5.37;;
19151;SDS011;9708;53.114;9.388;2024-03-08T11:48:02;9.97;;;4.73;;
19151;SDS011;9708;53.114;9.388;2024-03-08T11:50:30;8.77;;;4.57;;
19151;SDS011;9708;53.114;9.388;2024-03-08T11:53:02;7.57;;;4.13;;
19151;SDS011;9708;53.114;9.388;2024-03-08T11:55:30;9.75;;;4.35;;
19151;SDS011;9708;53.114;9.388;2024-03-08T11:58:01;7.03;;;3.88;;
19151;SDS011;9708;53.114;9.388;2024-03-08T12:00:30;7.55;;;4.43;;
19151;SDS011;9708;53.114;9.388;2024-03-08T12:03:03;7.80;;;4.43;;
19151;SDS011;9708;53.114;9.388;2024-03-08T12:05:31;8.02;;;3.97;;
19151;SDS011;9708;53.114;9.388;2024-03-08T12:07:59;7.67;;;4.27;;
19151;SDS011;9708;53.114;9.388;2024-03-08T12:10:26;8.95;;;4.43;;
19151;SDS011;9708;53.114;9.388;2024-03-08T12:12:54;7.05;;;3.95;;
19151;SDS011;9708;53.114;9.388;2024-03-08T12:15:24;9.30;;;5.32;;
19151;SDS011;9708;53.114;9.388;2024-03-08T12:17:54;7.18;;;4.25;;
19151;SDS011;9708;53.114;9.388;2024-03-08T12:20:22;7.53;;;4.77;;
19151;SDS011;9708;53.114;9.388;2024-03-08T12:22:51;7.45;;;3.80;;
19151;SDS011;9708;53.114;9.388;2024-03-08T12:25:18;9.48;;;4.45;;
19151;SDS011;9708;53.114;9.388;2024-03-08T12:27:46;7.33;;;4.87;;
19151;SDS011;9708;53.114;9.388;2024-03-08T12:30:17;8.67;;;4.37;;
19151;SDS011;9708;53.114;9.388;2024-03-08T12:32:50;6.97;;;4.30;;
19151;SDS011;9708;53.114;9.388;2024-03-08T12:35:21;5.45;;;3.40;;
19151;SDS011;9708;53.114;9.388;2024-03-08T12:37:48;7.72;;;4.28;;
19151;SDS011;9708;53.114;9.388;2024-03-08T12:40:17;10.90;;;4.63;;
19151;SDS011;9708;53.114;9.388;2024-03-08T12:42:44;8.40;;;4.10;;
19151;SDS011;9708;53.114;9.388;2024-03-08T12:45:12;8.30;;;4.73;;
19151;SDS011;9708;53.114;9.388;2024-03-08T12:47:40;14.93;;;5.37;;
19151;SDS011;9708;53.114;9.388;2024-03-08T12:50:08;7.07;;;5.07;;
19151;SDS011;9708;53.114;9.388;2024-03-08T12:52:37;16.07;;;4.50;;
19151;SDS011;9708;53.114;9.388;2024-03-08T12:55:04;10.03;;;5.43;;
19151;SDS011;9708;53.114;9.388;2024-03-08T12:57:33;7.27;;;4.33;;
19151;SDS011;9708;53.114;9.388;2024-03-08T13:00:01;8.93;;;4.27;;
19151;SDS011;9708;53.114;9.388;2024-03-08T13:02:29;11.83;;;4.70;;
19151;SDS011;9708;53.114;9.388;2024-03-08T13:04:57;6.27;;;3.70;;
19151;SDS011;9708;53.114;9.388;2024-03-08T13:07:24;7.43;;;4.43;;
19151;SDS011;9708;53.114;9.388;2024-03-08T13:09:53;8.50;;;4.63;;
19151;SDS011;9708;53.114;9.388;2024-03-08T13:12:20;8.43;;;4.73;;
19151;SDS011;9708;53.114;9.388;2024-03-08T13:14:48;6.53;;;3.77;;
19151;SDS011;9708;53.114;9.388;2024-03-08T13:17:15;5.10;;;3.33;;
19151;SDS011;9708;53.114;9.388;2024-03-08T13:19:43;7.43;;;4.87;;
19151;SDS011;9708;53.114;9.388;2024-03-08T13:22:10;6.80;;;3.83;;
19151;SDS011;9708;53.114;9.388;2024-03-08T13:24:38;10.33;;;4.73;;
19151;SDS011;9708;53.114;9.388;2024-03-08T13:27:08;6.03;;;4.00;;
19151;SDS011;9708;53.114;9.388;2024-03-08T13:29:44;7.70;;;5.50;;
19151;SDS011;9708;53.114;9.388;2024-03-08T13:32:15;12.73;;;5.67;;
19151;SDS011;9708;53.114;9.388;2024-03-08T13:34:42;5.70;;;4.73;;
19151;SDS011;9708;53.114;9.388;2024-03-08T13:37:10;8.60;;;4.17;;
19151;SDS011;9708;53.114;9.388;2024-03-08T13:39:37;7.60;;;4.20;;
19151;SDS011;9708;53.114;9.388;2024-03-08T13:42:10;6.73;;;4.17;;
19151;SDS011;9708;53.114;9.388;2024-03-08T13:44:39;10.80;;;4.87;;
19151;SDS011;9708;53.114;9.388;2024-03-08T13:47:09;9.27;;;4.80;;
19151;SDS011;9708;53.114;9.388;2024-03-08T13:49:37;7.50;;;4.40;;
19151;SDS011;9708;53.114;9.388;2024-03-08T13:52:04;6.67;;;5.17;;
19151;SDS011;9708;53.114;9.388;2024-03-08T13:54:33;8.90;;;4.70;;
19151;SDS011;9708;53.114;9.388;2024-03-08T13:57:00;10.43;;;5.80;;
19151;SDS011;9708;53.114;9.388;2024-03-08T13:59:30;11.70;;;4.90;;
19151;SDS011;9708;53.114;9.388;2024-03-08T14:01:58;7.23;;;4.00;;
19151;SDS011;9708;53.114;9.388;2024-03-08T14:04:26;10.73;;;4.83;;
19151;SDS011;9708;53.114;9.388;2024-03-08T14:06:53;5.10;;;3.47;;
19151;SDS011;9708;53.114;9.388;2024-03-08T14:09:22;8.13;;;4.80;;
19151;SDS011;9708;53.114;9.388;2024-03-08T14:11:50;6.43;;;4.17;;
19151;SDS011;9708;53.114;9.388;2024-03-08T14:14:19;4.13;;;3.73;;
19151;SDS011;9708;53.114;9.388;2024-03-08T14:16:49;4.47;;;3.53;;
19151;SDS011;9708;53.114;9.388;2024-03-08T14:19:18;6.67;;;3.83;;
19151;SDS011;9708;53.114;9.388;2024-03-08T14:21:45;9.80;;;5.17;;
19151;SDS011;9708;53.114;9.388;2024-03-08T14:24:13;8.87;;;4.50;;
19151;SDS011;9708;53.114;9.388;2024-03-08T14:26:40;6.53;;;3.90;;
19151;SDS011;9708;53.114;9.388;2024-03-08T14:29:07;6.13;;;3.93;;
19151;SDS011;9708;53.114;9.388;2024-03-08T14:31:35;4.43;;;2.87;;
19151;SDS011;9708;53.114;9.388;2024-03-08T14:34:04;6.73;;;3.67;;
19151;SDS011;9708;53.114;9.388;2024-03-08T14:36:32;6.20;;;3.97;;
19151;SDS011;9708;53.114;9.388;2024-03-08T14:38:59;8.57;;;3.83;;
19151;SDS011;9708;53.114;9.388;2024-03-08T14:41:26;12.47;;;2.87;;
19151;SDS011;9708;53.114;9.388;2024-03-08T14:43:52;7.10;;;3.43;;
19151;SDS011;9708;53.114;9.388;2024-03-08T14:46:19;10.50;;;4.10;;
19151;SDS011;9708;53.114;9.388;2024-03-08T14:48:48;4.50;;;3.27;;
19151;SDS011;9708;53.114;9.388;2024-03-08T14:51:17;3.70;;;3.03;;
19151;SDS011;9708;53.114;9.388;2024-03-08T14:53:45;7.60;;;5.53;;
19151;SDS011;9708;53.114;9.388;2024-03-08T14:56:11;11.80;;;3.93;;
19151;SDS011;9708;53.114;9.388;2024-03-08T14:58:41;7.00;;;3.33;;
19151;SDS011;9708;53.114;9.388;2024-03-08T15:01:09;7.60;;;3.30;;
19151;SDS011;9708;53.114;9.388;2024-03-08T15:03:38;4.43;;;3.10;;
19151;SDS011;9708;53.114;9.388;2024-03-08T15:06:05;7.10;;;3.50;;
19151;SDS011;9708;53.114;9.388;2024-03-08T15:08:36;7.77;;;4.57;;